Wilson Norfolk — 9HA2466 — position and weather

sailwx.info

Track history (hours):
 
Tides and Currents Weather Stations Pressure Air Temp Water Temp Dewpoint Dewpoint Depression Visibility Wind Speed Wind Dir Waves Ship Positions

Wilson Norfolk

Last reported at 2017-Jun-22 06:26 UTC. Time now 2017-Jun-24 07:13 UTC.
Position N 43°36' W 005°57'.

Length 123 m; draft 4.9 m.

Type: Ship. MMSI: 248678000.

Date/timePositionNaut miles runAvg speedWind from/ knotsBaromVisibWave heightAir tempDewpointWater temp
2017-Jun-22 06:26N 43°36' W 005°57'2 3.7
2017-Jun-22 06:00N 43°37' W 005°58'612.7
2017-Jun-22 05:30N 43°44' W 005°58'1013.7
2017-Jun-22 04:47N 43°54' W 005°58'413.6
2017-Jun-22 04:29N 43°58' W 005°58'6214.1
2017-Jun-22 00:04N 45°00' W 005°59'114.6
2017-Jun-21 23:58N 45°01' W 005°59'714.7
2017-Jun-21 23:30N 45°08' W 005°59'2714.2
2017-Jun-21 21:36N 45°35' W 005°59'214.4
2017-Jun-21 21:30N 45°37' W 005°59'714.4
2017-Jun-21 20:59N 45°44' W 005°59'714.5
2017-Jun-21 20:30N 45°51' W 005°59'714.4
2017-Jun-21 20:00N 45°58' W 005°59'714.5
2017-Jun-21 19:30N 46°05' W 005°59'714.5
2017-Jun-21 19:00N 46°13' W 005°59'815.0
2017-Jun-21 18:30N 46°20' W 005°59'715.0
2017-Jun-21 18:00N 46°28' W 005°60'714.3
2017-Jun-21 17:30N 46°35' W 005°60'714.4
2017-Jun-21 17:00N 46°42' W 005°60'714.4
2017-Jun-21 16:30N 46°49' W 006°00'714.2
2017-Jun-21 16:00N 46°56' W 006°00'714.0
2017-Jun-21 15:30N 47°03' W 005°60'713.6
2017-Jun-21 15:00N 47°10' W 005°60'1414.2
2017-Jun-21 14:00N 47°24' W 006°00'714.5
2017-Jun-21 13:30N 47°32' W 006°00'714.0
2017-Jun-21 13:00N 47°38' W 005°60'713.7
2017-Jun-21 12:30N 47°45' W 006°00'713.1
2017-Jun-21 12:00N 47°52' W 005°60'712.9
2017-Jun-21 11:30N 47°58' W 005°60'713.1
2017-Jun-21 10:59N 48°05' W 005°60'613.3
2017-Jun-21 10:30N 48°12' W 006°00'713.4
2017-Jun-21 10:01N 48°18' W 006°00'1113.4
2017-Jun-21 09:13N 48°29' W 006°00'313.8
2017-Jun-21 09:00N 48°32' W 006°00'714.1
2017-Jun-21 08:30N 48°39' W 006°01'814.6
2017-Jun-21 07:59N 48°46' W 005°55'714.5
2017-Jun-21 07:30N 48°52' W 005°50'714.7
2017-Jun-21 07:00N 48°56' W 005°42'815.3
2017-Jun-21 06:30N 48°60' W 005°31'815.2
2017-Jun-21 06:00N 49°03' W 005°21'714.1
2017-Jun-21 05:30N 49°06' W 005°11'713.8
2017-Jun-21 05:00N 49°09' W 005°02'713.6
2017-Jun-21 04:30N 49°13' W 004°53'713.3
2017-Jun-21 04:00N 49°16' W 004°44'612.9
2017-Jun-21 03:30N 49°20' W 004°36'712.7
2017-Jun-21 02:56N 49°23' W 004°26'712.5
2017-Jun-21 02:24N 49°27' W 004°18'512.4
2017-Jun-21 02:00N 49°30' W 004°11'612.6
2017-Jun-21 01:30N 49°34' W 004°04'612.7
2017-Jun-21 01:00N 49°37' W 003°55'713.0
2017-Jun-21 00:30N 49°40' W 003°47'713.4
2017-Jun-21 00:00N 49°44' W 003°38'714.1
2017-Jun-20 23:30N 49°48' W 003°29'714.5
2017-Jun-20 23:00N 49°52' W 003°20'815.0
2017-Jun-20 22:30N 49°56' W 003°10'714.9
2017-Jun-20 22:00N 49°59' W 002°59'815.1
2017-Jun-20 21:30N 50°01' W 002°48'815.2
2017-Jun-20 21:00N 50°03' W 002°36'714.8
2017-Jun-20 20:30N 50°05' W 002°25'714.6
2017-Jun-20 20:00N 50°07' W 002°14'714.1
2017-Jun-20 19:30N 50°08' W 002°04'713.5
2017-Jun-20 19:00N 50°10' W 001°54'713.1
2017-Jun-20 18:30N 50°12' W 001°44'612.3
2017-Jun-20 18:01N 50°14' W 001°34'611.9
2017-Jun-20 17:30N 50°11' W 001°27'611.7
2017-Jun-20 17:00N 50°07' W 001°19'611.7
2017-Jun-20 16:30N 50°03' W 001°12'611.6
2017-Jun-20 16:00N 49°60' W 001°05'611.9
2017-Jun-20 15:30N 49°56' W 000°58'612.1
2017-Jun-20 15:00N 49°52' W 000°51'612.1
2017-Jun-20 14:30N 49°48' W 000°44'1313.2
2017-Jun-20 13:30N 49°39' W 000°28'714.0
2017-Jun-20 13:00N 49°35' W 000°20'713.8
2017-Jun-20 12:30N 49°30' W 000°12'2 4.3
2017-Jun-20 12:00N 49°29' W 000°10'0 0.0
2017-Jun-20 11:30N 49°29' W 000°10'0 0.0
2017-Jun-20 11:00N 49°29' W 000°10'0 0.0
2017-Jun-20 10:30N 49°29' W 000°10'0 0.0
2017-Jun-20 10:00N 49°29' W 000°10'0 0.0
2017-Jun-20 09:30N 49°29' W 000°10'0 0.0
2017-Jun-20 09:00N 49°29' W 000°10'0 0.1
2017-Jun-20 08:30N 49°29' W 000°10'0 0.0
2017-Jun-20 07:57N 49°29' W 000°10'0 0.1
2017-Jun-20 07:30N 49°29' W 000°10'0 0.1
2017-Jun-20 07:00N 49°29' W 000°10'0 0.0
2017-Jun-20 06:30N 49°29' W 000°10'0 0.0
2017-Jun-20 06:00N 49°29' W 000°10'0 0.0
2017-Jun-20 05:30N 49°29' W 000°10'0 0.0
2017-Jun-20 05:00N 49°29' W 000°10'0 0.0
2017-Jun-20 04:30N 49°29' W 000°10'0 0.0
2017-Jun-20 04:00N 49°29' W 000°10'0 0.0
2017-Jun-20 03:30N 49°29' W 000°10'0 0.0
2017-Jun-20 03:00N 49°29' W 000°10'0 0.0
2017-Jun-20 02:30N 49°29' W 000°10'0 0.1
2017-Jun-20 02:00N 49°29' W 000°10'0 0.2
2017-Jun-20 01:30N 49°29' W 000°10'0 0.1
2017-Jun-20 01:00N 49°29' W 000°10'0 0.0
2017-Jun-20 00:30N 49°29' W 000°10'0 0.0
2017-Jun-20 00:00N 49°29' W 000°10'0 0.1
2017-Jun-19 23:30N 49°29' W 000°10'510.2
2017-Jun-19 23:00N 49°29' W 000°02'612.5
2017-Jun-19 22:31N 49°26' E 000°07'713.8
2017-Jun-19 22:01N 49°26' E 000°17'815.3
2017-Jun-19 21:30N 49°29' E 000°28'4 7.2
2017-Jun-19 21:00N 49°27' E 000°33'4 8.9
2017-Jun-19 20:30N 49°28' E 000°40'4 8.5
2017-Jun-19 20:00N 49°31' E 000°45'  
2017-Jun-16 01:09N 49°25' E 000°52'3 5.8
2017-Jun-16 00:39N 49°27' E 000°49'2 9.5
2017-Jun-16 00:25N 49°29' E 000°48'5 7.1
2017-Jun-15 23:43N 49°29' E 000°40'312.3
2017-Jun-15 23:30N 49°27' E 000°39'5 9.9
2017-Jun-15 23:00N 49°29' E 000°32'611.3
2017-Jun-15 22:31N 49°27' E 000°23'713.2
2017-Jun-15 22:00N 49°26' E 000°13'612.9
2017-Jun-15 21:30N 49°27' E 000°04'611.1
2017-Jun-15 21:00N 49°29' W 000°04'5 9.6
2017-Jun-15 20:30N 49°30' W 000°11'5 9.6
2017-Jun-15 20:00N 49°32' W 000°18'510.7
2017-Jun-15 19:30N 49°34' W 000°26'611.2
2017-Jun-15 19:00N 49°36' W 000°34'510.8
2017-Jun-15 18:30N 49°38' W 000°42'611.1
2017-Jun-15 18:00N 49°40' W 000°50'510.9
2017-Jun-15 17:30N 49°42' W 000°58'510.9
2017-Jun-15 17:00N 49°44' W 001°05'510.9
2017-Jun-15 16:30N 49°46' W 001°13'510.5
2017-Jun-15 16:00N 49°48' W 001°21'510.7
2017-Jun-15 15:30N 49°50' W 001°29'510.3
2017-Jun-15 15:00N 49°51' W 001°36'510.6
2017-Jun-15 14:30N 49°53' W 001°44'1111.2
2017-Jun-15 13:30N 49°58' W 002°00'611.9
2017-Jun-15 13:00N 49°56' W 002°09'612.2
2017-Jun-15 12:30N 49°54' W 002°18'712.4
2017-Jun-15 11:54N 49°52' W 002°29'512.5
2017-Jun-15 11:30N 49°51' W 002°36'612.3
2017-Jun-15 11:01N 49°49' W 002°46'612.1
2017-Jun-15 10:30N 49°47' W 002°54'811.8
2017-Jun-15 09:49N 49°43' W 003°05'412.0
2017-Jun-15 09:30N 49°41' W 003°10'611.8
2017-Jun-15 09:00N 49°38' W 003°18'4412.1
2017-Jun-15 05:21N 49°16' W 004°17'412.2
2017-Jun-15 05:00N 49°14' W 004°23'712.3
2017-Jun-15 04:26N 49°10' W 004°32'512.3
2017-Jun-15 04:00N 49°08' W 004°39'612.2
2017-Jun-15 03:30N 49°04' W 004°47'712.4
2017-Jun-15 02:55N 49°01' W 004°57'512.3
2017-Jun-15 02:30N 48°58' W 005°04'612.9
2017-Jun-15 02:00N 48°55' W 005°12'612.8
2017-Jun-15 01:30N 48°52' W 005°20'612.8
2017-Jun-15 01:00N 48°49' W 005°29'612.3
2017-Jun-15 00:30N 48°46' W 005°37'5 9.5
2017-Jun-15 00:00N 48°42' W 005°41'5 9.6
2017-Jun-14 23:28N 48°37' W 005°44'812.2
2017-Jun-14 22:51N 48°30' W 005°49'512.3
2017-Jun-14 22:28N 48°26' W 005°52'611.8
2017-Jun-14 21:59N 48°21' W 005°56'712.2
2017-Jun-14 21:24N 48°15' W 006°00'612.2
2017-Jun-14 20:57N 48°09' W 006°04'612.2
2017-Jun-14 20:25N 48°04' W 006°09'512.0
2017-Jun-14 20:00N 47°59' W 006°12'612.4
2017-Jun-14 19:29N 47°54' W 006°17'612.4
2017-Jun-14 18:59N 47°48' W 006°21'612.6
2017-Jun-14 18:30N 47°43' W 006°25'813.6
2017-Jun-14 17:55N 47°36' W 006°30'40812.7
2017-Jun-13 09:42N 41°12' W 009°48'413.2
2017-Jun-13 09:22N 41°08' W 009°48'512.8
2017-Jun-13 09:00N 41°03' W 009°48'612.5
2017-Jun-13 08:30N 40°57' W 009°49'612.2
2017-Jun-13 08:00N 40°51' W 009°49'612.3
2017-Jun-13 07:30N 40°45' W 009°49'612.1
2017-Jun-13 07:00N 40°39' W 009°49'611.9
2017-Jun-13 06:30N 40°33' W 009°49'611.7
2017-Jun-13 06:00N 40°27' W 009°49'611.4
2017-Jun-13 05:28N 40°21' W 009°48'511.5
2017-Jun-13 05:00N 40°16' W 009°48'611.9
2017-Jun-13 04:30N 40°10' W 009°48'612.3
2017-Jun-13 04:00N 40°04' W 009°47'611.7
2017-Jun-13 03:30N 39°58' W 009°47'611.9
2017-Jun-13 03:00N 39°52' W 009°47'612.3
2017-Jun-13 02:30N 39°46' W 009°47'612.5
2017-Jun-13 02:00N 39°40' W 009°49'612.5
2017-Jun-13 01:30N 39°33' W 009°49'812.3
2017-Jun-13 00:49N 39°25' W 009°49'412.2
2017-Jun-13 00:30N 39°21' W 009°50'612.1
2017-Jun-13 00:00N 39°15' W 009°50'612.2
2017-Jun-12 23:30N 39°09' W 009°50'612.4
2017-Jun-12 23:00N 39°03' W 009°50'612.4
2017-Jun-12 22:30N 38°57' W 009°50'612.4
2017-Jun-12 22:00N 38°50' W 009°50'612.0
2017-Jun-12 21:30N 38°44' W 009°50'612.1
2017-Jun-12 21:00N 38°38' W 009°49'611.9
2017-Jun-12 20:30N 38°33' W 009°47'611.7
2017-Jun-12 20:00N 38°27' W 009°46'611.1
2017-Jun-12 19:30N 38°21' W 009°44'611.2
2017-Jun-12 19:00N 38°16' W 009°42'611.3
2017-Jun-12 18:30N 38°11' W 009°41'611.3
2017-Jun-12 18:00N 38°05' W 009°39'611.6
2017-Jun-12 17:30N 37°59' W 009°37'611.8
2017-Jun-12 17:00N 37°54' W 009°36'611.9
2017-Jun-12 16:30N 37°48' W 009°34'612.0
2017-Jun-12 16:00N 37°42' W 009°33'612.3
2017-Jun-12 15:30N 37°36' W 009°31'612.7
2017-Jun-12 15:00N 37°30' W 009°29'612.1
2017-Jun-12 14:30N 37°24' W 009°27'1212.3
2017-Jun-12 13:30N 37°12' W 009°24'612.4
2017-Jun-12 13:00N 37°06' W 009°22'612.0
2017-Jun-12 12:30N 37°00' W 009°20'612.3
2017-Jun-12 12:00N 36°54' W 009°19'612.0
2017-Jun-12 11:30N 36°49' W 009°14'612.3
2017-Jun-12 11:00N 36°45' W 009°08'612.5
2017-Jun-12 10:30N 36°43' W 009°01'612.6
2017-Jun-12 10:00N 36°41' W 008°53'1311.4
2017-Jun-12 08:51N 36°37' W 008°38'1611.2
2017-Jun-12 07:27N 36°32' W 008°20'511.3
2017-Jun-12 06:59N 36°30' W 008°13'511.4
2017-Jun-12 06:30N 36°29' W 008°07'  
Track history (hours):
 
Tides and Currents Weather Stations Pressure Air Temp Water Temp Dewpoint Dewpoint Depression Visibility Wind Speed Wind Dir Waves Ship Positions

Wilson Norfolk

Last reported at 2017-Jun-22 06:26 UTC. Time now 2017-Jun-24 07:13 UTC.
Position N 43°36' W 005°57'.

Length 123 m; draft 4.9 m.

Type: Ship. MMSI: 248678000.

Date/timePositionNaut miles runAvg speedWind from/ knotsBaromVisibWave heightAir tempDewpointWater temp
2017-Jun-22 06:26N 43°36' W 005°57'2 3.7
2017-Jun-22 06:00N 43°37' W 005°58'612.7
2017-Jun-22 05:30N 43°44' W 005°58'1013.7
2017-Jun-22 04:47N 43°54' W 005°58'413.6
2017-Jun-22 04:29N 43°58' W 005°58'6214.1
2017-Jun-22 00:04N 45°00' W 005°59'114.6
2017-Jun-21 23:58N 45°01' W 005°59'714.7
2017-Jun-21 23:30N 45°08' W 005°59'2714.2
2017-Jun-21 21:36N 45°35' W 005°59'214.4
2017-Jun-21 21:30N 45°37' W 005°59'714.4
2017-Jun-21 20:59N 45°44' W 005°59'714.5
2017-Jun-21 20:30N 45°51' W 005°59'714.4
2017-Jun-21 20:00N 45°58' W 005°59'714.5
2017-Jun-21 19:30N 46°05' W 005°59'714.5
2017-Jun-21 19:00N 46°13' W 005°59'815.0
2017-Jun-21 18:30N 46°20' W 005°59'715.0
2017-Jun-21 18:00N 46°28' W 005°60'714.3
2017-Jun-21 17:30N 46°35' W 005°60'714.4
2017-Jun-21 17:00N 46°42' W 005°60'714.4
2017-Jun-21 16:30N 46°49' W 006°00'714.2
2017-Jun-21 16:00N 46°56' W 006°00'714.0
2017-Jun-21 15:30N 47°03' W 005°60'713.6
2017-Jun-21 15:00N 47°10' W 005°60'1414.2
2017-Jun-21 14:00N 47°24' W 006°00'714.5
2017-Jun-21 13:30N 47°32' W 006°00'714.0
2017-Jun-21 13:00N 47°38' W 005°60'713.7
2017-Jun-21 12:30N 47°45' W 006°00'713.1
2017-Jun-21 12:00N 47°52' W 005°60'712.9
2017-Jun-21 11:30N 47°58' W 005°60'713.1
2017-Jun-21 10:59N 48°05' W 005°60'613.3
2017-Jun-21 10:30N 48°12' W 006°00'713.4
2017-Jun-21 10:01N 48°18' W 006°00'1113.4
2017-Jun-21 09:13N 48°29' W 006°00'313.8
2017-Jun-21 09:00N 48°32' W 006°00'714.1
2017-Jun-21 08:30N 48°39' W 006°01'814.6
2017-Jun-21 07:59N 48°46' W 005°55'714.5
2017-Jun-21 07:30N 48°52' W 005°50'714.7
2017-Jun-21 07:00N 48°56' W 005°42'815.3
2017-Jun-21 06:30N 48°60' W 005°31'815.2
2017-Jun-21 06:00N 49°03' W 005°21'714.1
2017-Jun-21 05:30N 49°06' W 005°11'713.8
2017-Jun-21 05:00N 49°09' W 005°02'713.6
2017-Jun-21 04:30N 49°13' W 004°53'713.3
2017-Jun-21 04:00N 49°16' W 004°44'612.9
2017-Jun-21 03:30N 49°20' W 004°36'712.7
2017-Jun-21 02:56N 49°23' W 004°26'712.5
2017-Jun-21 02:24N 49°27' W 004°18'512.4
2017-Jun-21 02:00N 49°30' W 004°11'612.6
2017-Jun-21 01:30N 49°34' W 004°04'612.7
2017-Jun-21 01:00N 49°37' W 003°55'713.0
2017-Jun-21 00:30N 49°40' W 003°47'713.4
2017-Jun-21 00:00N 49°44' W 003°38'714.1
2017-Jun-20 23:30N 49°48' W 003°29'714.5
2017-Jun-20 23:00N 49°52' W 003°20'815.0
2017-Jun-20 22:30N 49°56' W 003°10'714.9
2017-Jun-20 22:00N 49°59' W 002°59'815.1
2017-Jun-20 21:30N 50°01' W 002°48'815.2
2017-Jun-20 21:00N 50°03' W 002°36'714.8
2017-Jun-20 20:30N 50°05' W 002°25'714.6
2017-Jun-20 20:00N 50°07' W 002°14'714.1
2017-Jun-20 19:30N 50°08' W 002°04'713.5
2017-Jun-20 19:00N 50°10' W 001°54'713.1
2017-Jun-20 18:30N 50°12' W 001°44'612.3
2017-Jun-20 18:01N 50°14' W 001°34'611.9
2017-Jun-20 17:30N 50°11' W 001°27'611.7
2017-Jun-20 17:00N 50°07' W 001°19'611.7
2017-Jun-20 16:30N 50°03' W 001°12'611.6
2017-Jun-20 16:00N 49°60' W 001°05'611.9
2017-Jun-20 15:30N 49°56' W 000°58'612.1
2017-Jun-20 15:00N 49°52' W 000°51'612.1
2017-Jun-20 14:30N 49°48' W 000°44'1313.2
2017-Jun-20 13:30N 49°39' W 000°28'714.0
2017-Jun-20 13:00N 49°35' W 000°20'713.8
2017-Jun-20 12:30N 49°30' W 000°12'2 4.3
2017-Jun-20 12:00N 49°29' W 000°10'0 0.0
2017-Jun-20 11:30N 49°29' W 000°10'0 0.0
2017-Jun-20 11:00N 49°29' W 000°10'0 0.0
2017-Jun-20 10:30N 49°29' W 000°10'0 0.0
2017-Jun-20 10:00N 49°29' W 000°10'0 0.0
2017-Jun-20 09:30N 49°29' W 000°10'0 0.0
2017-Jun-20 09:00N 49°29' W 000°10'0 0.1
2017-Jun-20 08:30N 49°29' W 000°10'0 0.0
2017-Jun-20 07:57N 49°29' W 000°10'0 0.1
2017-Jun-20 07:30N 49°29' W 000°10'0 0.1
2017-Jun-20 07:00N 49°29' W 000°10'0 0.0
2017-Jun-20 06:30N 49°29' W 000°10'0 0.0
2017-Jun-20 06:00N 49°29' W 000°10'0 0.0
2017-Jun-20 05:30N 49°29' W 000°10'0 0.0
2017-Jun-20 05:00N 49°29' W 000°10'0 0.0
2017-Jun-20 04:30N 49°29' W 000°10'0 0.0
2017-Jun-20 04:00N 49°29' W 000°10'0 0.0
2017-Jun-20 03:30N 49°29' W 000°10'0 0.0
2017-Jun-20 03:00N 49°29' W 000°10'0 0.0
2017-Jun-20 02:30N 49°29' W 000°10'0 0.1
2017-Jun-20 02:00N 49°29' W 000°10'0 0.2
2017-Jun-20 01:30N 49°29' W 000°10'0 0.1
2017-Jun-20 01:00N 49°29' W 000°10'0 0.0
2017-Jun-20 00:30N 49°29' W 000°10'0 0.0
2017-Jun-20 00:00N 49°29' W 000°10'0 0.1
2017-Jun-19 23:30N 49°29' W 000°10'510.2
2017-Jun-19 23:00N 49°29' W 000°02'612.5
2017-Jun-19 22:31N 49°26' E 000°07'713.8
2017-Jun-19 22:01N 49°26' E 000°17'815.3
2017-Jun-19 21:30N 49°29' E 000°28'4 7.2
2017-Jun-19 21:00N 49°27' E 000°33'4 8.9
2017-Jun-19 20:30N 49°28' E 000°40'4 8.5
2017-Jun-19 20:00N 49°31' E 000°45'  
2017-Jun-16 01:09N 49°25' E 000°52'3 5.8
2017-Jun-16 00:39N 49°27' E 000°49'2 9.5
2017-Jun-16 00:25N 49°29' E 000°48'5 7.1
2017-Jun-15 23:43N 49°29' E 000°40'312.3
2017-Jun-15 23:30N 49°27' E 000°39'5 9.9
2017-Jun-15 23:00N 49°29' E 000°32'611.3
2017-Jun-15 22:31N 49°27' E 000°23'713.2
2017-Jun-15 22:00N 49°26' E 000°13'612.9
2017-Jun-15 21:30N 49°27' E 000°04'611.1
2017-Jun-15 21:00N 49°29' W 000°04'5 9.6
2017-Jun-15 20:30N 49°30' W 000°11'5 9.6
2017-Jun-15 20:00N 49°32' W 000°18'510.7
2017-Jun-15 19:30N 49°34' W 000°26'611.2
2017-Jun-15 19:00N 49°36' W 000°34'510.8
2017-Jun-15 18:30N 49°38' W 000°42'611.1
2017-Jun-15 18:00N 49°40' W 000°50'510.9
2017-Jun-15 17:30N 49°42' W 000°58'510.9
2017-Jun-15 17:00N 49°44' W 001°05'510.9
2017-Jun-15 16:30N 49°46' W 001°13'510.5
2017-Jun-15 16:00N 49°48' W 001°21'510.7
2017-Jun-15 15:30N 49°50' W 001°29'510.3
2017-Jun-15 15:00N 49°51' W 001°36'510.6
2017-Jun-15 14:30N 49°53' W 001°44'1111.2
2017-Jun-15 13:30N 49°58' W 002°00'611.9
2017-Jun-15 13:00N 49°56' W 002°09'612.2
2017-Jun-15 12:30N 49°54' W 002°18'712.4
2017-Jun-15 11:54N 49°52' W 002°29'512.5
2017-Jun-15 11:30N 49°51' W 002°36'612.3
2017-Jun-15 11:01N 49°49' W 002°46'612.1
2017-Jun-15 10:30N 49°47' W 002°54'811.8
2017-Jun-15 09:49N 49°43' W 003°05'412.0
2017-Jun-15 09:30N 49°41' W 003°10'611.8
2017-Jun-15 09:00N 49°38' W 003°18'4412.1
2017-Jun-15 05:21N 49°16' W 004°17'412.2
2017-Jun-15 05:00N 49°14' W 004°23'712.3
2017-Jun-15 04:26N 49°10' W 004°32'512.3
2017-Jun-15 04:00N 49°08' W 004°39'612.2
2017-Jun-15 03:30N 49°04' W 004°47'712.4
2017-Jun-15 02:55N 49°01' W 004°57'512.3
2017-Jun-15 02:30N 48°58' W 005°04'612.9
2017-Jun-15 02:00N 48°55' W 005°12'612.8
2017-Jun-15 01:30N 48°52' W 005°20'612.8
2017-Jun-15 01:00N 48°49' W 005°29'612.3
2017-Jun-15 00:30N 48°46' W 005°37'5 9.5
2017-Jun-15 00:00N 48°42' W 005°41'5 9.6
2017-Jun-14 23:28N 48°37' W 005°44'812.2
2017-Jun-14 22:51N 48°30' W 005°49'512.3
2017-Jun-14 22:28N 48°26' W 005°52'611.8
2017-Jun-14 21:59N 48°21' W 005°56'712.2
2017-Jun-14 21:24N 48°15' W 006°00'612.2
2017-Jun-14 20:57N 48°09' W 006°04'612.2
2017-Jun-14 20:25N 48°04' W 006°09'512.0
2017-Jun-14 20:00N 47°59' W 006°12'612.4
2017-Jun-14 19:29N 47°54' W 006°17'612.4
2017-Jun-14 18:59N 47°48' W 006°21'612.6
2017-Jun-14 18:30N 47°43' W 006°25'813.6
2017-Jun-14 17:55N 47°36' W 006°30'40812.7
2017-Jun-13 09:42N 41°12' W 009°48'413.2
2017-Jun-13 09:22N 41°08' W 009°48'512.8
2017-Jun-13 09:00N 41°03' W 009°48'612.5
2017-Jun-13 08:30N 40°57' W 009°49'612.2
2017-Jun-13 08:00N 40°51' W 009°49'612.3
2017-Jun-13 07:30N 40°45' W 009°49'612.1
2017-Jun-13 07:00N 40°39' W 009°49'611.9
2017-Jun-13 06:30N 40°33' W 009°49'611.7
2017-Jun-13 06:00N 40°27' W 009°49'611.4
2017-Jun-13 05:28N 40°21' W 009°48'511.5
2017-Jun-13 05:00N 40°16' W 009°48'611.9
2017-Jun-13 04:30N 40°10' W 009°48'612.3
2017-Jun-13 04:00N 40°04' W 009°47'611.7
2017-Jun-13 03:30N 39°58' W 009°47'611.9
2017-Jun-13 03:00N 39°52' W 009°47'612.3
2017-Jun-13 02:30N 39°46' W 009°47'612.5
2017-Jun-13 02:00N 39°40' W 009°49'612.5
2017-Jun-13 01:30N 39°33' W 009°49'812.3
2017-Jun-13 00:49N 39°25' W 009°49'412.2
2017-Jun-13 00:30N 39°21' W 009°50'612.1
2017-Jun-13 00:00N 39°15' W 009°50'612.2
2017-Jun-12 23:30N 39°09' W 009°50'612.4
2017-Jun-12 23:00N 39°03' W 009°50'612.4
2017-Jun-12 22:30N 38°57' W 009°50'612.4
2017-Jun-12 22:00N 38°50' W 009°50'612.0
2017-Jun-12 21:30N 38°44' W 009°50'612.1
2017-Jun-12 21:00N 38°38' W 009°49'611.9
2017-Jun-12 20:30N 38°33' W 009°47'611.7
2017-Jun-12 20:00N 38°27' W 009°46'611.1
2017-Jun-12 19:30N 38°21' W 009°44'611.2
2017-Jun-12 19:00N 38°16' W 009°42'611.3
2017-Jun-12 18:30N 38°11' W 009°41'611.3
2017-Jun-12 18:00N 38°05' W 009°39'611.6
2017-Jun-12 17:30N 37°59' W 009°37'611.8
2017-Jun-12 17:00N 37°54' W 009°36'611.9
2017-Jun-12 16:30N 37°48' W 009°34'612.0
2017-Jun-12 16:00N 37°42' W 009°33'612.3
2017-Jun-12 15:30N 37°36' W 009°31'612.7
2017-Jun-12 15:00N 37°30' W 009°29'612.1
2017-Jun-12 14:30N 37°24' W 009°27'1212.3
2017-Jun-12 13:30N 37°12' W 009°24'612.4
2017-Jun-12 13:00N 37°06' W 009°22'612.0
2017-Jun-12 12:30N 37°00' W 009°20'612.3
2017-Jun-12 12:00N 36°54' W 009°19'612.0
2017-Jun-12 11:30N 36°49' W 009°14'612.3
2017-Jun-12 11:00N 36°45' W 009°08'612.5
2017-Jun-12 10:30N 36°43' W 009°01'612.6
2017-Jun-12 10:00N 36°41' W 008°53'1311.4
2017-Jun-12 08:51N 36°37' W 008°38'1611.2
2017-Jun-12 07:27N 36°32' W 008°20'511.3
2017-Jun-12 06:59N 36°30' W 008°13'511.4
2017-Jun-12 06:30N 36°29' W 008°07'  

Dump ship's entire track history